KMIC/MIC METAR and TAF weather

Enter ICAO airport designator
Station Type Date Time Source
KMIC METAR 2021/01/22 06:53 UTC NOAA

KMIC 220653Z AUTO 31010KT 10SM CLR M14/M19 A3011 RMK AO2 SLP213 T11441194


Station Type Date Time Source
KMIC Decoded METAR 2021/01/22 06:53 UTC NOAA

CRYSTAL AIRPORT, MN, United States (KMIC) 45-04N 093-21W 265M
Jan 22, 2021 - 01:53 AM EST / 2021.01.22 0653 UTC
Wind: from the NW (310 degrees) at 12 MPH (10 KT):0
Visibility: 10 mile(s):0
Sky conditions: clear
Temperature: 6.1 F (-14.4 C)
Windchill: -9 F (-23 C):2
Dew Point: -2.9 F (-19.4 C)
Relative Humidity: 65%
Pressure (altimeter): 30.11 in. Hg (1019 hPa)
ob: KMIC 220653Z AUTO 31010KT 10SM CLR M14/M19 A3011 RMK AO2 SLP213 T11441194
cycle: 7

Station Type Date Time Source
KMIC TAF UTC NOAA

Error!

Example: see airport list